• Join FlightAware (Why Join?)
  • Login
  • US Flag 
12:15AM EDT


 

Airport Tracker/Info


-or-


 

Live Flight TrackerFlight Track Log ✈ AWE1940 ✈ 02-Oct-2013 ✈ KTPA - KCLT

Flight Track Log - Related Links

Times and Time Zones

All times are in EDT time to prevent confusion due to time zone crossing. See the AWE1940 flight status page for this flight to view local times or setup timezone preferences in your user account.

Time Position Orientation Groundspeed Altitude Reporting Facility
EDT Latitude Longitude Course Direction KTS MPH feet Rate Location/Type
07:07PM 28.0000 -82.5333 360° North 162 186 900  Level Tampa TRACON
07:07PM 28.0000 -82.5333 360° North 163 188 1,300 1,800 Climbing Tampa TRACON
07:08PM 28.0667 -82.5333 360° North 229 264 3,300 2,040 Climbing Tampa TRACON
07:09PM 28.1500 -82.5333 360° North 279 321 5,600 2,220 Climbing Tampa TRACON
07:12PM 28.3247 -82.5600 352° North 292 336 11,000 1,920 Climbing Jacksonville Center
07:13PM 28.4269 -82.5644 358° North 321 369 12,300 1,800 Climbing Jacksonville Center
07:14PM 28.5336 -82.5736 356° North 360 414 14,600 2,400 Climbing Jacksonville Center
07:15PM 28.6461 -82.5781 358° North 384 442 17,200 2,220 Climbing Jacksonville Center
07:16PM 28.7736 -82.5847 357° North 399 459 19,100 1,800 Climbing Jacksonville Center
07:17PM 28.8947 -82.5914 357° North 412 474 20,900 1,680 Climbing Jacksonville Center
07:18PM 29.0178 -82.5981 357° North 424 488 22,500 1,560 Climbing Jacksonville Center
07:19PM 29.1472 -82.6050 357° North 444 511 24,100 1,500 Climbing Jacksonville Center
07:20PM 29.2767 -82.6142 356° North 459 528 25,500 1,620 Climbing Jacksonville Center
07:21PM 29.4103 -82.6231 357° North 472 543 27,400 1,620 Climbing Jacksonville Center
07:22PM 29.5397 -82.6300 357° North 472 543 28,800 1,440 Climbing Jacksonville Center
07:23PM 29.6733 -82.6369 357° North 477 549 30,300 1,440 Climbing Jacksonville Center
07:24PM 29.7903 -82.6461 356° North 477 549 31,700 1,260 Climbing Jacksonville Center
07:25PM 29.9197 -82.6531 357° North 477 549 32,900 600 Climbing Jacksonville Center
07:26PM 30.0514 -82.6575 358° North 472 543 32,900  Level Jacksonville Center
07:27PM 30.1808 -82.6644 357° North 467 537 32,900  Level Jacksonville Center
07:28PM 30.3103 -82.6736 357° North 467 537 32,900  Level Jacksonville Center
07:29PM 30.4439 -82.6806 357° North 467 537 32,900  Level Jacksonville Center
07:30PM 30.5733 -82.6803 360° North 462 532 32,900  Level Jacksonville Center
07:31PM 30.7028 -82.6558 North 462 532 32,900  Level Jacksonville Center
07:32PM 30.8364 -82.6311 North 468 539 32,900  Level Jacksonville Center
07:33PM 30.9656 -82.6092 North 468 539 32,900  Level Jacksonville Center
07:34PM 31.0972 -82.5892 North 468 539 32,900  Level Jacksonville Center
07:35PM 31.2328 -82.5647 North 468 539 32,900  Level Jacksonville Center
07:36PM 31.3769 -82.5347 10° North 468 539 32,900 -480 Level Jacksonville Center
07:37PM 31.5042 -82.5150 North 468 539 32,000 -900 Descending Jacksonville Center
07:38PM 31.6336 -82.4900 North 463 533 31,100 -360 Descending Jacksonville Center
07:40PM 31.9181 -82.4483 North 464 534 30,900 -120 Descending Atlanta Center
07:41PM 32.0492 -82.4289 North 464 534 30,900  Level Atlanta Center
07:42PM 32.1803 -82.4094 North 464 534 30,900  Level Atlanta Center
07:43PM 32.3117 -82.3850 North 469 540 30,900  Level Atlanta Center
07:44PM 32.4428 -82.3678 North 469 540 30,900  Level Atlanta Center
07:45PM 32.5781 -82.3428 North 475 547 30,900  Level Atlanta Center
07:46PM 32.7114 -82.3206 North 481 554 30,900  Level Atlanta Center
07:47PM 32.8447 -82.3031 North 481 554 30,900  Level Atlanta Center
07:48PM 32.9758 -82.2808 North 481 554 30,900  Level Atlanta Center
07:49PM 33.1092 -82.2606 North 481 554 30,900  Level Atlanta Center
07:50PM 33.2425 -82.2356 North 481 554 30,900  Level Atlanta Center
07:51PM 33.3717 -82.2156 North 481 554 30,900  Level Atlanta Center
07:52PM 33.5069 -82.1953 North 481 554 30,900  Level Atlanta Center
07:53PM 33.6381 -82.1725 North 481 554 30,900 -600 Level Atlanta Center
07:54PM 33.7819 -82.1594 North 481 554 29,700 -2,040 Descending Atlanta Center
07:55PM 33.9156 -82.1564 North 476 548 26,900 -2,940 Descending Atlanta Center
07:56PM 34.0511 -82.1583 359° North 476 548 23,900 -1,500 Descending Atlanta Center
07:57PM 34.1825 -82.1556 North 476 548 23,900 -480 Level Atlanta Center
07:58PM 34.3006 -82.0975 22° Northeast 452 520 23,000 -1,800 Descending Atlanta Center
07:59PM 34.3886 -81.9822 47° Northeast 445 512 20,300 -2,700 Descending Atlanta Center
08:00PM 34.4764 -81.8717 46° Northeast 450 518 17,600 -2,760 Descending Atlanta Center
08:01PM 34.5558 -81.7689 47° Northeast 431 496 14,800 -2,880 Descending Atlanta Center
08:01PM 34.6008 -81.7144 45° Northeast 392 451 13,100 -2,640 Descending Atlanta Center
08:02PM 34.6292 -81.6733 50° Northeast 408 470 12,200 -2,520 Descending Atlanta Center
08:02PM 34.6558 -81.6397 46° Northeast 368 423 11,100 -1,200 Descending Atlanta Center
08:03PM 34.7047 -81.5828 44° Northeast 375 432 11,000 -120 Descending Atlanta Center
08:03PM 34.7414 -81.5364 46° Northeast 378 435 11,000  Level Atlanta Center
08:04PM 34.7697 -81.5025 44° Northeast 370 426 11,000 -120 Level Atlanta Center
08:04PM 34.8019 -81.4433 56° Northeast 384 442 10,900 -420 Descending Atlanta Center
08:05PM 34.8114 -81.3900 78° East 349 402 10,600 -600 Descending Atlanta Center
08:05PM 34.8161 -81.3317 84° East 317 365 10,300 -540 Descending Atlanta Center
08:06PM 34.8175 -81.2886 88° East 316 364 10,100 -420 Descending Atlanta Center
08:06PM 34.8225 -81.2378 83° East 256 295 9,900 -720 Descending Atlanta Center
08:07PM 34.8236 -81.1997 88° East 281 323 9,400 -1,020 Descending Atlanta Center
08:07PM 34.8269 -81.1567 85° East 240 276 8,900 -1,140 Descending Atlanta Center
08:08PM 34.8261 -81.1189 92° East 245 282 8,300 -1,380 Descending Atlanta Center
08:08PM 34.8308 -81.0656 84° East 235 270 7,400 -1,320 Descending Atlanta Center
08:09PM 34.8344 -81.0400 80° East 236 272 7,000 -1,320 Descending Atlanta Center
08:09PM 34.8692 -81.0083 37° Northeast 247 284 6,200 -1,020 Descending Atlanta Center
08:10PM 34.8897 -80.9975 23° Northeast 216 249 6,000 -180 Descending Atlanta Center
08:10PM 34.9267 -80.9733 28° Northeast 216 249 6,000 -240 Level Atlanta Center
08:11PM 34.9453 -80.9650 20° North 216 249 5,800 -1,140 Descending Atlanta Center
08:11PM 34.9867 -80.9483 18° North 209 241 4,900 -1,320 Descending Atlanta Center
08:12PM 35.0411 -80.9539 355° North 214 246 3,800 -1,080 Descending Atlanta Center
08:13PM 35.0933 -80.9572 357° North 193 222 2,800 -900 Descending Atlanta Center
08:14PM 35.1372 -80.9631 354° North 152 175 2,000 -840 Descending Atlanta Center
08:15PM 35.1769 -80.9667 356° North 139 160 1,200 -840 Descending Atlanta Center